createdAt,value
2023-05-04T00:00:17.652Z,33.13
2023-05-04T00:01:17.656Z,33.13
2023-05-04T00:02:17.707Z,33.09
2023-05-04T00:03:17.747Z,33.06
2023-05-04T00:04:17.804Z,33.07
2023-05-04T00:05:17.777Z,33.08
2023-05-04T00:06:17.828Z,33.04
2023-05-04T00:07:17.850Z,33.09
2023-05-04T00:08:17.881Z,33.10
2023-05-04T00:09:17.933Z,33.09
2023-05-04T00:10:17.963Z,33.08
2023-05-04T00:11:17.995Z,33.10
2023-05-04T00:12:18.054Z,33.07
2023-05-04T00:13:18.113Z,33.10
2023-05-04T00:14:18.121Z,33.11
2023-05-04T00:15:18.243Z,33.07
2023-05-04T00:16:18.252Z,33.10
2023-05-04T00:17:19.170Z,33.11
2023-05-04T00:18:18.308Z,33.08
2023-05-04T00:19:18.331Z,33.16
2023-05-04T00:20:18.397Z,33.13
2023-05-04T00:21:18.449Z,33.07
2023-05-04T00:22:18.479Z,33.05
2023-05-04T00:23:18.512Z,33.08
2023-05-04T00:24:18.560Z,33.14
2023-05-04T00:25:18.606Z,33.12
2023-05-04T00:26:18.663Z,33.11
2023-05-04T00:27:18.704Z,33.12
2023-05-04T00:28:18.747Z,33.08
2023-05-04T00:29:18.839Z,33.09
2023-05-04T00:30:18.874Z,33.08
2023-05-04T00:31:19.063Z,33.09
2023-05-04T00:32:18.948Z,33.11
2023-05-04T00:33:18.998Z,33.12
2023-05-04T00:34:19.042Z,33.12
2023-05-04T00:35:19.114Z,33.15
2023-05-04T00:36:19.151Z,33.07
2023-05-04T00:37:19.205Z,33.03
2023-05-04T00:38:19.254Z,33.09
2023-05-04T00:39:20.241Z,33.11
2023-05-04T00:40:19.472Z,33.09
2023-05-04T00:41:19.460Z,33.09
2023-05-04T00:42:19.495Z,33.06
2023-05-04T00:43:19.524Z,33.07
2023-05-04T00:44:19.576Z,33.07
2023-05-04T00:45:19.655Z,33.05
2023-05-04T00:46:19.690Z,33.09
2023-05-04T00:47:20.006Z,33.02
2023-05-04T00:48:19.808Z,33.03
2023-05-04T00:49:19.865Z,33.03
2023-05-04T00:50:19.937Z,33.06
2023-05-04T00:51:19.995Z,33.02
2023-05-04T00:52:20.060Z,33.07
2023-05-04T00:53:20.123Z,33.09
2023-05-04T00:54:20.166Z,33.09
2023-05-04T00:55:20.224Z,33.05
2023-05-04T00:56:20.293Z,33.03
2023-05-04T00:57:20.342Z,33.06
2023-05-04T00:58:20.403Z,33.03
2023-05-04T00:59:20.454Z,33.03
2023-05-04T01:00:20.526Z,33.06
2023-05-04T01:01:20.632Z,33.09
2023-05-04T01:02:20.620Z,33.02
2023-05-04T01:03:20.738Z,33.03
2023-05-04T01:04:20.771Z,33.06
2023-05-04T01:05:20.804Z,33.00
2023-05-04T01:06:20.864Z,33.03
2023-05-04T01:07:20.933Z,32.98
2023-05-04T01:08:20.981Z,32.96
2023-05-04T01:09:21.033Z,33.02
2023-05-04T01:10:21.098Z,33.00
2023-05-04T01:11:21.156Z,32.98
2023-05-04T01:12:21.219Z,32.99
2023-05-04T01:13:21.279Z,33.00
2023-05-04T01:14:21.331Z,32.97
2023-05-04T01:15:21.389Z,32.98
2023-05-04T01:16:21.475Z,32.92
2023-05-04T01:17:21.523Z,32.98
2023-05-04T01:18:21.551Z,33.01
2023-05-04T01:19:21.624Z,32.96
2023-05-04T01:20:21.703Z,32.94
2023-05-04T01:21:21.736Z,32.95
2023-05-04T01:22:21.793Z,32.95
2023-05-04T01:23:21.848Z,32.97
2023-05-04T01:24:21.899Z,33.00
2023-05-04T01:25:21.977Z,32.98
2023-05-04T01:26:22.019Z,32.97
2023-05-04T01:27:22.078Z,32.92
2023-05-04T01:28:22.136Z,32.92
2023-05-04T01:29:22.191Z,32.95
2023-05-04T01:30:22.595Z,32.92
2023-05-04T01:31:22.703Z,32.95
2023-05-04T01:32:22.752Z,32.92
2023-05-04T01:33:22.720Z,32.94
2023-05-04T01:34:22.652Z,32.92
2023-05-04T01:35:22.642Z,32.86
2023-05-04T01:36:22.650Z,32.92
2023-05-04T01:37:22.655Z,32.92
2023-05-04T01:38:22.697Z,32.95
2023-05-04T01:39:22.744Z,32.86
2023-05-04T01:40:22.804Z,32.94
2023-05-04T01:41:22.864Z,32.97
2023-05-04T01:42:22.930Z,32.94
2023-05-04T01:43:22.987Z,32.91
2023-05-04T01:44:23.052Z,32.94
2023-05-04T01:45:23.111Z,32.85
2023-05-04T01:46:23.223Z,32.89
2023-05-04T01:47:23.259Z,32.88
2023-05-04T01:48:23.648Z,32.85
2023-05-04T01:49:23.673Z,32.88
2023-05-04T01:50:23.645Z,32.88
2023-05-04T01:51:23.644Z,32.82
2023-05-04T01:52:23.679Z,32.88
2023-05-04T01:53:23.664Z,32.85
2023-05-04T01:54:23.697Z,32.90
2023-05-04T01:55:23.728Z,32.85
2023-05-04T01:56:23.773Z,32.88
2023-05-04T01:57:23.838Z,32.83
2023-05-04T01:58:23.897Z,32.88
2023-05-04T01:59:23.954Z,32.89
2023-05-04T02:00:24.019Z,32.86
2023-05-04T02:01:24.092Z,32.86
2023-05-04T02:02:24.141Z,32.92
2023-05-04T02:03:24.320Z,32.86
2023-05-04T02:04:24.355Z,32.85
2023-05-04T02:05:24.361Z,32.93
2023-05-04T02:06:24.401Z,32.90
2023-05-04T02:07:24.468Z,32.90
2023-05-04T02:08:24.572Z,32.89
2023-05-04T02:09:24.613Z,32.89
2023-05-04T02:10:24.646Z,32.86
2023-05-04T02:11:24.711Z,32.79
2023-05-04T02:12:24.785Z,32.85
2023-05-04T02:13:24.846Z,32.81
2023-05-04T02:14:24.926Z,32.80
2023-05-04T02:15:24.968Z,32.81
2023-05-04T02:16:25.098Z,32.79
2023-05-04T02:17:25.144Z,32.80
2023-05-04T02:18:25.168Z,32.84
2023-05-04T02:19:25.226Z,32.83
2023-05-04T02:20:25.307Z,32.80
2023-05-04T02:21:25.383Z,32.80
2023-05-04T02:22:25.425Z,32.76
2023-05-04T02:23:25.523Z,32.74
2023-05-04T02:24:25.542Z,32.77
2023-05-04T02:25:25.608Z,32.76
2023-05-04T02:26:25.678Z,32.77
2023-05-04T02:27:25.743Z,32.81
2023-05-04T02:28:25.805Z,32.79
2023-05-04T02:29:25.866Z,32.81
2023-05-04T02:30:25.915Z,32.83
2023-05-04T02:31:26.058Z,32.79
2023-05-04T02:32:26.129Z,32.80
2023-05-04T02:33:26.115Z,32.77
2023-05-04T02:34:26.179Z,32.78
2023-05-04T02:35:26.260Z,32.80
2023-05-04T02:36:26.304Z,32.79
2023-05-04T02:37:26.393Z,32.79
2023-05-04T02:38:26.445Z,32.77
2023-05-04T02:39:26.481Z,32.75
2023-05-04T02:40:26.540Z,32.75
2023-05-04T02:41:26.600Z,32.73
2023-05-04T02:42:26.679Z,32.75
2023-05-04T02:43:26.718Z,32.75
2023-05-04T02:44:26.767Z,32.70
2023-05-04T02:45:26.874Z,32.73
2023-05-04T02:46:26.929Z,32.73
2023-05-04T02:47:27.003Z,32.74
2023-05-04T02:48:27.005Z,32.72
2023-05-04T02:49:27.064Z,32.74
2023-05-04T02:50:27.125Z,32.73
2023-05-04T02:51:27.179Z,32.70
2023-05-04T02:52:27.225Z,32.71
2023-05-04T02:53:27.301Z,32.65
2023-05-04T02:54:27.354Z,32.68
2023-05-04T02:55:27.376Z,32.67
2023-05-04T02:56:27.422Z,32.68
2023-05-04T02:57:27.477Z,32.65
2023-05-04T02:58:27.533Z,32.67
2023-05-04T02:59:27.583Z,32.63
2023-05-04T03:00:27.630Z,32.67
2023-05-04T03:01:27.709Z,32.61
2023-05-04T03:02:27.723Z,32.63
2023-05-04T03:03:27.767Z,32.66
2023-05-04T03:04:27.876Z,32.65
2023-05-04T03:05:27.857Z,32.63
2023-05-04T03:06:27.906Z,32.63
2023-05-04T03:07:27.954Z,32.67
2023-05-04T03:08:27.985Z,32.69
2023-05-04T03:09:28.040Z,32.61
2023-05-04T03:10:28.064Z,32.65
2023-05-04T03:11:28.101Z,32.66
2023-05-04T03:12:28.160Z,32.65
2023-05-04T03:13:28.188Z,32.63
2023-05-04T03:14:28.206Z,32.68
2023-05-04T03:15:28.267Z,32.68
2023-05-04T03:16:28.765Z,32.66
2023-05-04T03:17:28.734Z,32.63
2023-05-04T03:18:28.707Z,32.65
2023-05-04T03:19:28.697Z,32.65
2023-05-04T03:20:28.701Z,32.69
2023-05-04T03:21:28.702Z,32.65
2023-05-04T03:22:28.712Z,32.68
2023-05-04T03:23:28.700Z,32.63
2023-05-04T03:24:28.709Z,32.65
2023-05-04T03:25:28.726Z,32.69
2023-05-04T03:26:28.714Z,32.70
2023-05-04T03:27:28.710Z,32.63
2023-05-04T03:28:28.712Z,32.65
2023-05-04T03:29:28.712Z,32.64
2023-05-04T03:30:28.718Z,32.63
2023-05-04T03:31:28.759Z,32.64
2023-05-04T03:32:28.789Z,32.68
2023-05-04T03:33:28.774Z,32.62
2023-05-04T03:34:28.794Z,32.66
2023-05-04T03:35:28.828Z,32.62
2023-05-04T03:36:28.866Z,32.63
2023-05-04T03:37:28.844Z,32.62
2023-05-04T03:38:28.870Z,32.62
2023-05-04T03:39:28.875Z,32.60
2023-05-04T03:40:28.891Z,32.56
2023-05-04T03:41:28.937Z,32.59
2023-05-04T03:42:28.960Z,32.64
2023-05-04T03:43:28.953Z,32.63
2023-05-04T03:44:28.964Z,32.60
2023-05-04T03:45:28.991Z,32.64
2023-05-04T03:46:29.099Z,32.59
2023-05-04T03:47:29.056Z,32.62
2023-05-04T03:48:29.088Z,32.56
2023-05-04T03:49:29.085Z,32.64
2023-05-04T03:50:29.101Z,32.59
2023-05-04T03:51:29.108Z,32.60
2023-05-04T03:52:29.121Z,32.62
2023-05-04T03:53:29.136Z,32.60
2023-05-04T03:54:29.135Z,32.59
2023-05-04T03:55:29.142Z,32.56
2023-05-04T03:56:29.166Z,32.54
2023-05-04T03:57:29.232Z,32.57
2023-05-04T03:58:29.188Z,32.64
2023-05-04T03:59:29.203Z,32.60
2023-05-04T04:00:29.206Z,32.54
2023-05-04T04:01:29.228Z,32.56
2023-05-04T04:02:29.311Z,32.54
2023-05-04T04:03:29.446Z,32.58
2023-05-04T04:04:29.293Z,32.56
2023-05-04T04:05:29.232Z,32.58
2023-05-04T04:06:29.238Z,32.58
2023-05-04T04:07:29.252Z,32.52
2023-05-04T04:08:29.262Z,32.58
2023-05-04T04:09:29.256Z,32.63
2023-05-04T04:10:29.277Z,32.57
2023-05-04T04:11:30.225Z,32.60
2023-05-04T04:12:29.308Z,32.58
2023-05-04T04:13:29.425Z,32.61
2023-05-04T04:14:29.312Z,32.60
2023-05-04T04:15:29.691Z,32.58
2023-05-04T04:16:29.760Z,32.57
2023-05-04T04:17:29.772Z,32.55
2023-05-04T04:18:29.727Z,32.48
2023-05-04T04:19:29.692Z,32.54
2023-05-04T04:20:29.732Z,32.51
2023-05-04T04:21:29.738Z,32.54
2023-05-04T04:22:29.743Z,32.54
2023-05-04T04:23:29.734Z,32.52
2023-05-04T04:24:28.735Z,32.54
2023-05-04T04:25:29.737Z,32.51
2023-05-04T04:26:29.736Z,32.55
2023-05-04T04:27:29.746Z,32.54
2023-05-04T04:28:29.738Z,32.52
2023-05-04T04:29:29.771Z,32.52
2023-05-04T04:30:29.769Z,32.52
2023-05-04T04:31:29.770Z,32.51
2023-05-04T04:32:29.776Z,32.46
2023-05-04T04:33:29.764Z,32.49
2023-05-04T04:34:29.745Z,32.47
2023-05-04T04:35:29.767Z,32.44
2023-05-04T04:36:29.745Z,32.46
2023-05-04T04:37:29.753Z,32.46
2023-05-04T04:38:29.760Z,32.44
2023-05-04T04:39:29.796Z,32.46
2023-05-04T04:40:29.759Z,32.48
2023-05-04T04:41:29.751Z,32.47
2023-05-04T04:42:29.766Z,32.50
2023-05-04T04:43:29.752Z,32.47
2023-05-04T04:44:29.769Z,32.47
2023-05-04T04:45:30.909Z,32.40
2023-05-04T04:46:29.852Z,32.42
2023-05-04T04:47:29.789Z,32.41
2023-05-04T04:48:29.770Z,32.44
2023-05-04T04:49:30.610Z,32.42
2023-05-04T04:50:29.761Z,32.44
2023-05-04T04:51:29.747Z,32.41
2023-05-04T04:52:29.769Z,32.37
2023-05-04T04:53:29.752Z,32.38
2023-05-04T04:54:29.757Z,32.37
2023-05-04T04:55:29.751Z,32.41
2023-05-04T04:56:29.752Z,32.47
2023-05-04T04:57:31.717Z,32.34
2023-05-04T04:58:29.760Z,32.40
2023-05-04T04:59:29.765Z,32.34
2023-05-04T05:00:29.765Z,32.34
2023-05-04T05:01:30.034Z,32.37
2023-05-04T05:02:29.722Z,32.32
2023-05-04T05:03:29.717Z,32.32
2023-05-04T05:04:29.355Z,32.31
2023-05-04T05:05:31.580Z,32.35
2023-05-04T05:06:29.345Z,32.38
2023-05-04T05:07:29.342Z,32.35
2023-05-04T05:08:29.332Z,32.34
2023-05-04T05:09:29.320Z,32.37
2023-05-04T05:10:29.320Z,32.32
2023-05-04T05:11:29.314Z,32.28
2023-05-04T05:12:29.797Z,32.32
2023-05-04T05:13:29.293Z,32.34
2023-05-04T05:14:29.286Z,32.32
2023-05-04T05:15:29.280Z,32.30
2023-05-04T05:16:29.295Z,32.35
2023-05-04T05:17:29.426Z,32.30
2023-05-04T05:18:29.313Z,32.25
2023-05-04T05:19:29.258Z,32.31
2023-05-04T05:20:29.244Z,32.28
2023-05-04T05:21:30.261Z,32.30
2023-05-04T05:22:29.257Z,32.46
2023-05-04T05:23:29.229Z,32.57
2023-05-04T05:24:29.257Z,32.53
2023-05-04T05:25:29.254Z,32.65
2023-05-04T05:26:29.248Z,32.67
2023-05-04T05:27:29.243Z,32.63
2023-05-04T05:28:29.281Z,32.61
2023-05-04T05:29:29.232Z,32.67
2023-05-04T05:30:29.261Z,32.73
2023-05-04T05:31:29.426Z,32.79
2023-05-04T05:32:29.374Z,32.74
2023-05-04T05:33:29.446Z,32.76
2023-05-04T05:34:29.471Z,32.82
2023-05-04T05:35:29.518Z,32.83
2023-05-04T05:36:29.591Z,32.82
2023-05-04T05:37:29.791Z,32.87
2023-05-04T05:38:29.709Z,32.87
2023-05-04T05:39:31.793Z,32.88
2023-05-04T05:40:29.750Z,32.94
2023-05-04T05:41:29.753Z,32.91
2023-05-04T05:42:29.727Z,32.92
2023-05-04T05:43:29.795Z,32.97
2023-05-04T05:44:29.731Z,32.98
2023-05-04T05:45:30.721Z,33.01
2023-05-04T05:46:32.984Z,33.04
2023-05-04T05:47:29.746Z,33.07
2023-05-04T05:48:29.805Z,33.11
2023-05-04T05:49:29.741Z,33.13
2023-05-04T05:50:29.672Z,33.13
2023-05-04T05:51:32.873Z,33.15
2023-05-04T05:52:29.807Z,33.23
2023-05-04T05:53:29.788Z,33.25
2023-05-04T05:54:33.034Z,33.29
2023-05-04T05:55:33.510Z,33.45
2023-05-04T05:56:29.798Z,33.57
2023-05-04T05:57:29.750Z,33.88
2023-05-04T05:58:29.622Z,33.94
2023-05-04T05:59:30.589Z,33.95
2023-05-04T06:00:37.185Z,34.03
2023-05-04T06:01:32.830Z,34.23
2023-05-04T06:02:29.854Z,34.26
2023-05-04T06:03:29.749Z,34.39
2023-05-04T06:04:45.445Z,34.69
2023-05-04T06:05:37.002Z,34.88
2023-05-04T06:06:32.745Z,34.97
2023-05-04T06:07:29.530Z,35.04
2023-05-04T06:08:29.771Z,35.30
2023-05-04T06:09:30.532Z,35.29
2023-05-04T06:10:29.548Z,35.61
2023-05-04T06:11:29.504Z,35.63
2023-05-04T06:12:29.798Z,35.71
2023-05-04T06:13:29.838Z,35.85
2023-05-04T06:14:29.829Z,35.97
2023-05-04T06:15:29.474Z,36.25
2023-05-04T06:16:29.502Z,36.35
2023-05-04T06:17:29.531Z,36.54
2023-05-04T06:18:30.478Z,36.67
2023-05-04T06:19:32.629Z,36.77
2023-05-04T06:20:29.534Z,36.74
2023-05-04T06:21:29.435Z,36.83
2023-05-04T06:22:29.779Z,36.89
2023-05-04T06:23:29.428Z,37.12
2023-05-04T06:24:29.419Z,37.25
2023-05-04T06:25:29.468Z,37.30
2023-05-04T06:26:29.415Z,37.33
2023-05-04T06:27:29.375Z,37.59
2023-05-04T06:28:29.391Z,37.65
2023-05-04T06:29:29.369Z,37.69
2023-05-04T06:30:29.408Z,37.86
2023-05-04T06:31:29.409Z,38.00
2023-05-04T06:32:29.823Z,38.00
2023-05-04T06:33:29.330Z,38.13
2023-05-04T06:34:29.326Z,38.34
2023-05-04T06:35:29.343Z,38.26
2023-05-04T06:36:29.345Z,38.38
2023-05-04T06:37:29.777Z,38.53
2023-05-04T06:38:29.319Z,38.64
2023-05-04T06:39:29.287Z,38.66
2023-05-04T06:40:32.492Z,38.72
2023-05-04T06:41:29.268Z,38.78
2023-05-04T06:42:29.271Z,38.88
2023-05-04T06:43:29.257Z,39.04
2023-05-04T06:44:29.250Z,39.24
2023-05-04T06:45:29.283Z,39.19
2023-05-04T06:46:29.288Z,39.49
2023-05-04T06:47:29.261Z,39.34
2023-05-04T06:48:29.240Z,39.61
2023-05-04T06:49:29.207Z,39.58
2023-05-04T06:50:29.215Z,38.47
2023-05-04T06:51:29.320Z,38.60
2023-05-04T06:52:32.448Z,38.34
2023-05-04T06:53:29.233Z,38.00
2023-05-04T06:54:29.411Z,37.36
2023-05-04T06:55:29.166Z,36.88
2023-05-04T06:56:29.154Z,36.20
2023-05-04T06:57:29.603Z,36.05
2023-05-04T06:58:36.544Z,35.97
2023-05-04T06:59:29.148Z,35.90
2023-05-04T07:00:29.791Z,35.66
2023-05-04T07:01:29.358Z,35.55
2023-05-04T07:02:29.185Z,35.41
2023-05-04T07:03:29.159Z,35.31
2023-05-04T07:04:32.349Z,35.22
2023-05-04T07:05:29.117Z,35.10
2023-05-04T07:06:29.098Z,35.04
2023-05-04T07:07:29.084Z,34.98
2023-05-04T07:08:29.109Z,34.84
2023-05-04T07:09:29.081Z,34.78
2023-05-04T07:10:29.056Z,34.45
2023-05-04T07:11:29.070Z,34.31
2023-05-04T07:12:29.111Z,34.24
2023-05-04T07:13:29.050Z,34.21
2023-05-04T07:14:29.018Z,34.22
2023-05-04T07:15:29.009Z,34.15
2023-05-04T07:16:29.029Z,34.07
2023-05-04T07:17:29.046Z,33.91
2023-05-04T07:18:28.984Z,33.87
2023-05-04T07:19:28.990Z,33.92
2023-05-04T07:20:28.967Z,33.83
2023-05-04T07:21:29.877Z,33.74
2023-05-04T07:22:28.955Z,33.72
2023-05-04T07:23:29.294Z,33.67
2023-05-04T07:24:28.988Z,33.59
2023-05-04T07:25:29.059Z,33.46
2023-05-04T07:26:29.295Z,33.40
2023-05-04T07:27:29.197Z,33.36
2023-05-04T07:28:29.329Z,33.27
2023-05-04T07:29:29.488Z,33.20
2023-05-04T07:30:29.473Z,33.23
2023-05-04T07:31:30.495Z,33.19
2023-05-04T07:32:32.648Z,33.23
2023-05-04T07:33:36.873Z,33.23
2023-05-04T07:34:41.868Z,33.17
2023-05-04T07:35:33.091Z,32.91
2023-05-04T07:36:32.994Z,32.63
2023-05-04T07:37:29.441Z,32.22
2023-05-04T07:38:29.836Z,32.12
2023-05-04T07:39:29.433Z,32.18
2023-05-04T07:40:29.475Z,32.22
2023-05-04T07:41:29.438Z,32.18
2023-05-04T07:42:29.838Z,32.16
2023-05-04T07:43:29.829Z,32.09
2023-05-04T07:44:33.011Z,32.05
2023-05-04T07:45:29.379Z,32.05
2023-05-04T07:46:29.451Z,32.02
2023-05-04T07:47:30.908Z,31.86
2023-05-04T07:48:29.547Z,31.76
2023-05-04T07:49:29.807Z,31.80
2023-05-04T07:50:29.660Z,31.78
2023-05-04T07:51:29.721Z,31.80
2023-05-04T07:52:29.793Z,31.78
2023-05-04T07:53:30.311Z,31.76
2023-05-04T07:54:30.888Z,31.84
2023-05-04T07:55:29.925Z,31.87
2023-05-04T07:56:30.055Z,31.79
2023-05-04T07:57:30.067Z,31.86
2023-05-04T07:58:30.351Z,31.96
2023-05-04T07:59:30.162Z,31.98
2023-05-04T08:00:30.204Z,31.99
2023-05-04T08:01:30.259Z,31.95
2023-05-04T08:02:30.456Z,32.05
2023-05-04T08:03:30.368Z,32.04
2023-05-04T08:04:30.369Z,31.98
2023-05-04T08:05:30.418Z,32.07
2023-05-04T08:06:30.627Z,31.99
2023-05-04T08:07:30.842Z,32.03
2023-05-04T08:08:30.558Z,32.04
2023-05-04T08:09:30.539Z,31.99
2023-05-04T08:10:30.573Z,31.96
2023-05-04T08:11:30.586Z,31.80
2023-05-04T08:12:31.663Z,31.74
2023-05-04T08:13:30.657Z,31.70
2023-05-04T08:14:30.681Z,31.62
2023-05-04T08:15:30.891Z,31.61
2023-05-04T08:16:30.734Z,31.60
2023-05-04T08:17:30.866Z,31.64
2023-05-04T08:18:30.772Z,31.54
2023-05-04T08:19:31.817Z,31.52
2023-05-04T08:20:30.822Z,31.51
2023-05-04T08:21:31.836Z,31.42
2023-05-04T08:22:31.407Z,31.44
2023-05-04T08:23:30.887Z,31.40
2023-05-04T08:24:30.919Z,31.38
2023-05-04T08:25:30.980Z,31.32
2023-05-04T08:26:30.985Z,31.35
2023-05-04T08:27:31.362Z,31.34
2023-05-04T08:28:32.129Z,31.41
2023-05-04T08:29:31.045Z,31.47
2023-05-04T08:30:31.108Z,31.48
2023-05-04T08:31:31.225Z,31.43
2023-05-04T08:32:33.295Z,31.49
2023-05-04T08:33:31.033Z,31.57
2023-05-04T08:35:31.060Z,31.55
2023-05-04T08:36:34.215Z,31.49
2023-05-04T08:37:31.358Z,31.52
2023-05-04T08:38:31.024Z,31.47
2023-05-04T08:39:34.552Z,31.48
2023-05-04T08:41:30.985Z,31.58
2023-05-04T08:42:31.008Z,31.45
2023-05-04T08:43:31.026Z,31.55
2023-05-04T08:44:31.376Z,31.19
2023-05-04T08:45:31.028Z,31.38
2023-05-04T08:46:30.989Z,31.21
2023-05-04T08:47:30.997Z,30.90
2023-05-04T08:48:30.948Z,30.40
2023-05-04T08:49:31.350Z,30.21
2023-05-04T08:50:30.944Z,30.02
2023-05-04T08:52:02.733Z,29.83
2023-05-04T08:52:30.939Z,29.81
2023-05-04T08:53:31.845Z,29.74
2023-05-04T08:54:30.893Z,29.68
2023-05-04T08:55:38.289Z,29.68
2023-05-04T08:56:30.924Z,29.53
2023-05-04T08:57:31.878Z,29.37
2023-05-04T08:58:31.331Z,29.32
2023-05-04T08:59:30.901Z,29.34
2023-05-04T09:00:30.932Z,29.48
2023-05-04T09:01:30.917Z,29.48
2023-05-04T09:02:30.895Z,29.57
2023-05-04T09:03:30.991Z,29.62
2023-05-04T09:04:30.810Z,29.49
2023-05-04T09:05:31.349Z,29.42
2023-05-04T09:06:30.903Z,29.42
2023-05-04T09:07:30.965Z,29.37
2023-05-04T09:08:31.033Z,29.24
2023-05-04T09:09:32.075Z,29.20
2023-05-04T09:10:31.188Z,29.12
2023-05-04T09:11:31.214Z,29.10
2023-05-04T09:12:31.298Z,29.12
2023-05-04T09:13:31.334Z,28.88
2023-05-04T09:14:31.401Z,28.90
2023-05-04T09:15:31.471Z,28.78
2023-05-04T09:16:31.953Z,28.77
2023-05-04T09:17:31.961Z,28.69
2023-05-04T09:18:32.394Z,28.69
2023-05-04T09:19:31.937Z,28.68
2023-05-04T09:20:31.942Z,28.52
2023-05-04T09:21:31.937Z,28.55
2023-05-04T09:22:31.947Z,28.46
2023-05-04T09:23:32.413Z,28.41
2023-05-04T09:24:31.949Z,28.35
2023-05-04T09:25:32.005Z,28.30
2023-05-04T09:26:35.250Z,28.27
2023-05-04T09:27:31.992Z,28.21
2023-05-04T09:28:33.242Z,28.09
2023-05-04T09:29:31.988Z,28.08
2023-05-04T09:30:31.985Z,28.09
2023-05-04T09:31:32.058Z,28.44
2023-05-04T09:32:35.263Z,28.45
2023-05-04T09:33:32.405Z,28.65
2023-05-04T09:34:31.984Z,28.71
2023-05-04T09:35:33.782Z,29.03
2023-05-04T09:36:31.979Z,29.26
2023-05-04T09:37:32.945Z,29.23
2023-05-04T09:38:32.383Z,28.48
2023-05-04T09:39:32.379Z,29.13
2023-05-04T09:40:31.941Z,29.00
2023-05-04T09:41:31.935Z,28.84
2023-05-04T09:42:31.950Z,28.75
2023-05-04T09:43:31.959Z,29.06
2023-05-04T09:44:32.357Z,29.13
2023-05-04T09:45:31.961Z,29.01
2023-05-04T09:46:31.987Z,29.07
2023-05-04T09:47:33.000Z,29.35
2023-05-04T09:48:32.007Z,29.39
2023-05-04T09:49:31.965Z,29.63
2023-05-04T09:50:31.983Z,29.70
2023-05-04T09:51:32.050Z,29.67
2023-05-04T09:52:32.099Z,29.68
2023-05-04T09:53:32.401Z,29.65
2023-05-04T09:54:32.244Z,29.65
2023-05-04T09:55:32.276Z,29.59
2023-05-04T09:56:32.345Z,29.65
2023-05-04T09:57:33.402Z,29.83
2023-05-04T09:58:32.891Z,29.86
2023-05-04T09:59:32.508Z,29.86
2023-05-04T10:00:32.534Z,29.80
2023-05-04T10:01:32.589Z,29.98
2023-05-04T10:02:32.602Z,30.01
2023-05-04T10:03:32.876Z,29.92
2023-05-04T10:04:32.918Z,29.83
2023-05-04T10:05:32.553Z,29.92
2023-05-04T10:06:32.549Z,30.12
2023-05-04T10:07:32.557Z,30.18
2023-05-04T10:08:32.559Z,30.18
2023-05-04T10:09:32.858Z,30.19
2023-05-04T10:10:32.621Z,30.12
2023-05-04T10:11:32.697Z,30.17
2023-05-04T10:12:32.756Z,30.26
2023-05-04T10:13:32.797Z,30.14
2023-05-04T10:14:32.858Z,30.21
2023-05-04T10:15:32.941Z,30.15
2023-05-04T10:16:33.252Z,30.16
2023-05-04T10:17:33.207Z,30.17
2023-05-04T10:18:33.356Z,29.75
2023-05-04T10:19:33.199Z,30.17
2023-05-04T10:20:33.267Z,30.09
2023-05-04T10:21:33.190Z,30.09
2023-05-04T10:22:33.361Z,30.04
2023-05-04T10:23:33.358Z,30.23
2023-05-04T10:24:33.254Z,30.31
2023-05-04T10:25:33.222Z,30.64
2023-05-04T10:26:33.211Z,31.03
2023-05-04T10:27:33.242Z,31.02
2023-05-04T10:28:33.376Z,31.26
2023-05-04T10:29:33.345Z,30.91
2023-05-04T10:30:33.458Z,31.32
2023-05-04T10:31:33.549Z,31.51
2023-05-04T10:32:33.536Z,31.35
2023-05-04T10:33:34.019Z,31.45
2023-05-04T10:34:33.562Z,31.59
2023-05-04T10:35:33.581Z,31.72
2023-05-04T10:36:33.608Z,31.73
2023-05-04T10:37:33.868Z,31.81
2023-05-04T10:38:48.133Z,31.81
2023-05-04T10:39:52.548Z,31.91
2023-05-04T10:40:52.820Z,31.92
2023-05-04T10:41:52.891Z,32.03
2023-05-04T10:42:52.937Z,32.04
2023-05-04T10:43:53.054Z,32.01
2023-05-04T10:44:53.473Z,32.13
2023-05-04T10:45:53.135Z,32.21
2023-05-04T10:46:53.459Z,32.21
2023-05-04T10:47:53.269Z,32.24
2023-05-04T10:48:53.298Z,32.26
2023-05-04T10:49:53.483Z,32.29
2023-05-04T10:50:53.403Z,32.29
2023-05-04T10:51:53.484Z,32.44
2023-05-04T10:52:53.508Z,32.41
2023-05-04T10:53:53.555Z,32.47
2023-05-04T10:54:53.982Z,32.41
2023-05-04T10:55:53.614Z,32.37
2023-05-04T10:56:53.654Z,32.36
2023-05-04T10:57:53.674Z,32.39
2023-05-04T10:58:53.708Z,32.45
2023-05-04T10:59:53.980Z,32.45
2023-05-04T11:00:53.788Z,32.41
2023-05-04T11:01:53.830Z,32.39
2023-05-04T11:02:54.046Z,32.39
2023-05-04T11:03:53.888Z,32.41
2023-05-04T11:04:53.867Z,32.38
2023-05-04T11:05:53.899Z,32.40
2023-05-04T11:06:53.894Z,32.48
2023-05-04T11:07:54.010Z,32.49
2023-05-04T11:08:53.987Z,29.33
2023-05-04T11:09:53.990Z,31.51
2023-05-04T11:10:54.017Z,31.73
2023-05-04T11:11:54.082Z,31.97
2023-05-04T11:12:55.137Z,32.22
2023-05-04T11:13:54.488Z,31.93
2023-05-04T11:14:54.174Z,31.65
2023-05-04T11:15:54.217Z,31.71
2023-05-04T11:16:54.264Z,31.65
2023-05-04T11:17:54.273Z,31.70
2023-05-04T11:18:54.506Z,31.63
2023-05-04T11:19:54.320Z,31.72
2023-05-04T11:20:54.350Z,31.77
2023-05-04T11:21:54.399Z,31.77
2023-05-04T11:22:54.459Z,31.74
2023-05-04T11:23:54.516Z,31.72
2023-05-04T11:24:56.120Z,31.79
2023-05-04T11:25:54.440Z,31.82
2023-05-04T11:26:54.426Z,30.63
2023-05-04T11:27:54.410Z,29.49
2023-05-04T11:28:54.424Z,29.96
2023-05-04T11:29:54.397Z,30.23
2023-05-04T11:30:56.196Z,30.60
2023-05-04T11:31:54.468Z,30.67
2023-05-04T11:32:54.438Z,30.81
2023-05-04T11:33:54.416Z,30.85
2023-05-04T11:34:54.362Z,30.86
2023-05-04T11:35:54.353Z,30.89
2023-05-04T11:36:54.364Z,30.93
2023-05-04T11:37:54.353Z,31.01
2023-05-04T11:38:54.546Z,30.93
2023-05-04T11:39:54.441Z,30.96
2023-05-04T11:40:54.328Z,30.94
2023-05-04T11:41:54.326Z,30.96
2023-05-04T11:42:56.655Z,30.89
2023-05-04T11:43:54.325Z,30.90
2023-05-04T11:44:54.318Z,30.95
2023-05-04T11:45:54.306Z,31.07
2023-05-04T11:46:54.334Z,31.07
2023-05-04T11:47:55.298Z,30.05
2023-05-04T11:48:54.496Z,30.80
2023-05-04T11:49:54.269Z,30.92
2023-05-04T11:50:54.271Z,30.89
2023-05-04T11:51:54.267Z,30.97
2023-05-04T11:52:54.502Z,31.09
2023-05-04T11:53:54.256Z,31.12
2023-05-04T11:54:55.690Z,29.96
2023-05-04T11:55:54.459Z,29.51
2023-05-04T11:56:54.432Z,29.87
2023-05-04T11:57:54.465Z,30.34
2023-05-04T11:58:54.507Z,30.52
2023-05-04T11:59:54.491Z,30.73
2023-05-04T12:00:55.922Z,30.74
2023-05-04T12:01:54.600Z,30.92
2023-05-04T12:02:54.669Z,30.98
2023-05-04T12:03:54.931Z,30.94
2023-05-04T12:04:54.710Z,30.85
2023-05-04T12:05:54.764Z,31.05
2023-05-04T12:06:55.011Z,31.36
2023-05-04T12:07:54.885Z,31.48
2023-05-04T12:08:56.002Z,31.38
2023-05-04T12:09:55.026Z,31.31
2023-05-04T12:10:55.012Z,31.45
2023-05-04T12:11:54.906Z,31.44
2023-05-04T12:12:54.825Z,31.53
2023-05-04T12:13:54.771Z,31.59
2023-05-04T12:14:55.005Z,30.35
2023-05-04T12:15:54.844Z,30.36
2023-05-04T12:16:54.896Z,30.65
2023-05-04T12:17:54.954Z,30.76
2023-05-04T12:18:54.937Z,30.79
2023-05-04T12:19:54.959Z,30.82
2023-05-04T12:20:54.947Z,30.76
2023-05-04T12:21:54.967Z,30.78
2023-05-04T12:22:54.969Z,30.90
2023-05-04T12:23:54.968Z,30.94
2023-05-04T12:24:55.043Z,31.01
2023-05-04T12:25:58.525Z,31.01
2023-05-04T12:26:55.019Z,30.96
2023-05-04T12:27:55.028Z,31.01
2023-05-04T12:28:55.008Z,31.05
2023-05-04T12:29:55.017Z,31.09
2023-05-04T12:30:54.977Z,31.07
2023-05-04T12:31:55.016Z,31.11
2023-05-04T12:32:54.980Z,31.13
2023-05-04T12:33:54.966Z,31.22
2023-05-04T12:34:54.972Z,31.12
2023-05-04T12:35:55.014Z,31.02
2023-05-04T12:36:54.954Z,30.95
2023-05-04T12:37:54.988Z,30.91
2023-05-04T12:38:55.035Z,30.79
2023-05-04T12:39:55.084Z,30.82
2023-05-04T12:40:55.145Z,30.76
2023-05-04T12:41:55.184Z,30.81
2023-05-04T12:42:55.252Z,30.87
2023-05-04T12:43:55.428Z,30.83
2023-05-04T12:44:55.521Z,30.78
2023-05-04T12:45:55.478Z,30.73
2023-05-04T12:46:55.453Z,30.77
2023-05-04T12:47:55.565Z,30.74
2023-05-04T12:48:55.552Z,30.79
2023-05-04T12:49:55.989Z,30.87
2023-05-04T12:50:55.967Z,30.80
2023-05-04T12:51:55.692Z,30.77
2023-05-04T12:52:55.753Z,30.76
2023-05-04T12:53:55.777Z,30.75
2023-05-04T12:54:55.824Z,30.71